Time;durP1;ratioP1;P1;durP2;ratioP2;P2;SDS_P1;SDS_P2;PMS_P1;PMS_P2;Temp;Humidity;BMP_temperature;BMP_pressure;BME280_temperature;BME280_humidity;BME280_pressure;Samples;Min_cycle;Max_cycle;Signal;HPM_P1;HPM_P2
2021/03/13 00:00:38;;;;;;;231.00;111.18;;;;;;;;;;10444811;27;20535;-63
2021/03/13 00:05:37;;;;;;;94.20;59.88;;;;;;;;;;10444655;27;20043;-63
2021/03/13 00:10:36;;;;;;;122.07;77.68;;;;;;;;;;10444937;27;20515;-63
2021/03/13 00:15:33;;;;;;;69.38;53.03;;;;;;;;;;10444157;27;20081;-63
2021/03/13 00:20:31;;;;;;;73.35;57.95;;;;;;;;;;10444474;27;20078;-63
2021/03/13 00:25:29;;;;;;;64.45;52.10;;;;;;;;;;10443694;27;20074;-63
2021/03/13 00:30:29;;;;;;;51.85;42.15;;;;;;;;;;10443922;27;20515;-63
2021/03/13 00:35:27;;;;;;;144.85;80.90;;;;;;;;;;10443823;27;20043;-63
2021/03/13 00:40:25;;;;;;;92.90;65.63;;;;;;;;;;10443436;27;20424;-63
2021/03/13 00:45:24;;;;;;;45.47;35.17;;;;;;;;;;10442801;27;20109;-63
2021/03/13 00:50:23;;;;;;;30.63;24.67;;;;;;;;;;10443294;27;20036;-63
2021/03/13 00:55:21;;;;;;;37.33;27.77;;;;;;;;;;10443064;27;20054;-63
2021/03/13 01:00:24;;;;;;;37.28;27.38;;;;;;;;;;10442756;27;20039;-63
2021/03/13 01:05:23;;;;;;;28.02;21.67;;;;;;;;;;10441803;27;20086;-63
2021/03/13 01:10:24;;;;;;;38.15;29.05;;;;;;;;;;10422889;27;20055;-63
2021/03/13 01:15:22;;;;;;;27.65;20.98;;;;;;;;;;10423201;27;20401;-63
2021/03/13 01:20:24;;;;;;;102.28;51.08;;;;;;;;;;10442376;27;20439;-63
2021/03/13 01:25:22;;;;;;;110.03;61.13;;;;;;;;;;10422526;27;20055;-63
2021/03/13 01:30:21;;;;;;;79.55;45.40;;;;;;;;;;10422534;27;20048;-63
2021/03/13 01:35:24;;;;;;;93.85;54.45;;;;;;;;;;10440953;27;20055;-63
2021/03/13 01:40:23;;;;;;;72.13;40.28;;;;;;;;;;10440795;27;20062;-63
2021/03/13 01:45:23;;;;;;;48.50;29.33;;;;;;;;;;10422804;27;20047;-63
2021/03/13 01:50:26;;;;;;;;;;;;;;;;;;10422506;27;20051;-63
2021/03/13 01:55:25;;;;;;;27.50;20.42;;;;;;;;;;10421419;27;19919;-63
2021/03/13 02:00:27;;;;;;;20.48;16.63;;;;;;;;;;10440466;28;20051;-63
2021/03/13 02:05:29;;;;;;;23.95;18.67;;;;;;;;;;10421812;28;20505;-63
2021/03/13 02:10:42;;;;;;;26.45;20.58;;;;;;;;;;10440009;28;20062;-63
2021/03/13 02:15:49;;;;;;;28.90;22.10;;;;;;;;;;10421757;28;20512;-63
2021/03/13 02:21:03;;;;;;;40.33;24.17;;;;;;;;;;10421558;28;20058;-64
2021/03/13 02:26:28;;;;;;;28.80;23.20;;;;;;;;;;10421084;28;20483;-63
2021/03/13 02:31:47;;;;;;;26.95;19.75;;;;;;;;;;10440325;28;20423;-63
2021/03/13 02:36:46;;;;;;;29.20;19.50;;;;;;;;;;10421189;28;20420;-64
2021/03/13 02:41:46;;;;;;;44.42;28.65;;;;;;;;;;10420956;28;20112;-63
2021/03/13 02:46:47;;;;;;;23.30;19.52;;;;;;;;;;10421333;28;20503;-63
2021/03/13 02:51:48;;;;;;;23.17;15.63;;;;;;;;;;10421075;28;20047;-63
2021/03/13 02:56:46;;;;;;;19.85;15.88;;;;;;;;;;10420624;28;20422;-63
2021/03/13 03:01:47;;;;;;;18.33;16.20;;;;;;;;;;10421146;28;20086;-63
2021/03/13 03:06:48;;;;;;;41.38;28.48;;;;;;;;;;10420657;27;20069;-63
2021/03/13 03:11:45;;;;;;;61.42;37.03;;;;;;;;;;10426994;27;20054;-63
2021/03/13 03:16:46;;;;;;;61.47;39.03;;;;;;;;;;10428018;27;20052;-63
2021/03/13 03:21:47;;;;;;;65.05;38.17;;;;;;;;;;10446402;27;20078;-63
2021/03/13 03:26:45;;;;;;;19.42;16.23;;;;;;;;;;10427100;27;20069;-63
2021/03/13 03:31:43;;;;;;;25.27;20.38;;;;;;;;;;10427496;27;20540;-63
2021/03/13 03:36:42;;;;;;;42.65;32.58;;;;;;;;;;10427518;27;20051;-63
2021/03/13 03:41:42;;;;;;;57.83;39.15;;;;;;;;;;10427096;27;20047;-63
2021/03/13 03:46:40;;;;;;;59.97;41.33;;;;;;;;;;10426809;27;20059;-63
2021/03/13 03:51:41;;;;;;;53.00;38.35;;;;;;;;;;10426740;27;20055;-63
2021/03/13 03:56:45;;;;;;;50.03;38.30;;;;;;;;;;10426388;27;20047;-63
2021/03/13 04:01:44;;;;;;;54.15;38.97;;;;;;;;;;10444773;27;20131;-63
2021/03/13 04:06:42;;;;;;;50.10;34.53;;;;;;;;;;10444795;27;20534;-62
2021/03/13 04:11:40;;;;;;;48.13;35.70;;;;;;;;;;10445218;27;20035;-62
2021/03/13 04:16:39;;;;;;;42.63;32.45;;;;;;;;;;10444887;27;20420;-62
2021/03/13 04:21:37;;;;;;;46.13;32.70;;;;;;;;;;10443274;27;20074;-62
2021/03/13 04:26:35;;;;;;;75.18;54.47;;;;;;;;;;10444419;27;20062;-62
2021/03/13 04:31:32;;;;;;;67.60;49.75;;;;;;;;;;10443462;27;20404;-61
2021/03/13 04:36:32;;;;;;;67.88;49.22;;;;;;;;;;10443430;27;20125;-61
2021/03/13 04:41:31;;;;;;;57.15;40.50;;;;;;;;;;10442779;27;20043;-62
2021/03/13 04:46:32;;;;;;;59.88;45.60;;;;;;;;;;10424454;27;20047;-63
2021/03/13 04:51:30;;;;;;;89.72;58.45;;;;;;;;;;10443152;27;20078;-63
2021/03/13 04:56:28;;;;;;;82.93;57.08;;;;;;;;;;10424034;27;20058;-63
2021/03/13 05:01:25;;;;;;;51.53;37.85;;;;;;;;;;10442610;27;20066;-63
2021/03/13 05:06:22;;;;;;;59.65;40.80;;;;;;;;;;10442531;27;20082;-63
2021/03/13 05:11:20;;;;;;;41.85;31.02;;;;;;;;;;10442480;27;20039;-63
2021/03/13 05:16:18;;;;;;;40.13;23.50;;;;;;;;;;10441771;27;20099;-63
2021/03/13 05:21:15;;;;;;;73.70;42.53;;;;;;;;;;10441794;27;20039;-62
2021/03/13 05:26:13;;;;;;;36.70;28.23;;;;;;;;;;10442218;27;20081;-63
2021/03/13 05:31:11;;;;;;;56.05;34.20;;;;;;;;;;10441107;27;20039;-63
2021/03/13 05:36:28;;;;;;;36.78;28.55;;;;;;;;;;10440877;27;20082;-62
2021/03/13 05:41:25;;;;;;;33.10;27.88;;;;;;;;;;10441522;27;20508;-62
2021/03/13 05:46:24;;;;;;;25.48;20.67;;;;;;;;;;10441571;27;20070;-62
2021/03/13 05:51:23;;;;;;;29.98;23.73;;;;;;;;;;10440931;27;20477;-62
2021/03/13 05:56:21;;;;;;;37.03;26.63;;;;;;;;;;10441419;27;20039;-62
2021/03/13 06:01:18;;;;;;;54.97;34.13;;;;;;;;;;10440542;28;20121;-63
2021/03/13 06:06:16;;;;;;;91.70;52.63;;;;;;;;;;10440239;28;20082;-61
2021/03/13 06:11:14;;;;;;;106.43;65.30;;;;;;;;;;10441124;28;20050;-62
2021/03/13 06:16:11;;;;;;;70.13;51.10;;;;;;;;;;10440202;28;20050;-61
2021/03/13 06:21:21;;;;;;;56.35;44.03;;;;;;;;;;10440074;28;20078;-61
2021/03/13 06:26:18;;;;;;;37.92;29.73;;;;;;;;;;10440709;28;20072;-62
2021/03/13 06:31:21;;;;;;;27.80;22.70;;;;;;;;;;10439659;28;20086;-62
2021/03/13 06:36:26;;;;;;;54.17;40.20;;;;;;;;;;10440004;28;20046;-62
2021/03/13 06:41:24;;;;;;;50.00;35.53;;;;;;;;;;10440225;27;20081;-62
2021/03/13 06:46:21;;;;;;;33.45;23.88;;;;;;;;;;10447267;27;20074;-62
2021/03/13 06:51:27;;;;;;;26.60;21.52;;;;;;;;;;10447081;27;20416;-61
2021/03/13 06:56:24;;;;;;;;;;;;;;;;;;10448557;27;20047;-62
2021/03/13 07:01:25;;;;;;;32.88;24.25;;;;;;;;;;10447884;27;19951;-62
2021/03/13 07:06:23;;;;;;;58.33;40.08;;;;;;;;;;10447370;27;20502;-63
2021/03/13 07:11:23;;;;;;;82.28;54.88;;;;;;;;;;10446842;27;20040;-64
2021/03/13 07:16:27;;;;;;;151.23;93.15;;;;;;;;;;10446644;27;20062;-63
2021/03/13 07:21:25;;;;;;;106.67;68.17;;;;;;;;;;10446702;27;20062;-63
2021/03/13 07:26:28;;;;;;;123.43;66.00;;;;;;;;;;10446224;27;20089;-62
2021/03/13 07:31:26;;;;;;;91.68;61.17;;;;;;;;;;10445806;27;20560;-62
2021/03/13 07:36:24;;;;;;;85.57;59.20;;;;;;;;;;10445923;27;20491;-62
2021/03/13 07:41:22;;;;;;;78.78;52.08;;;;;;;;;;10446013;27;20082;-62
2021/03/13 07:46:21;;;;;;;86.18;53.40;;;;;;;;;;10445964;27;20075;-62
2021/03/13 07:51:19;;;;;;;107.55;74.13;;;;;;;;;;10445811;27;20047;-63
2021/03/13 07:56:17;;;;;;;286.67;132.40;;;;;;;;;;10443561;27;20070;-62
2021/03/13 08:01:14;;;;;;;115.75;59.83;;;;;;;;;;10444884;27;20459;-62
2021/03/13 08:06:14;;;;;;;104.70;55.03;;;;;;;;;;10445241;27;20074;-62
2021/03/13 08:11:11;;;;;;;100.97;59.85;;;;;;;;;;10444321;27;20043;-62
2021/03/13 08:16:09;;;;;;;79.60;47.08;;;;;;;;;;10444026;27;20105;-62
2021/03/13 08:21:25;;;;;;;85.05;47.95;;;;;;;;;;10443503;27;20503;-63
2021/03/13 08:26:22;;;;;;;;;;;;;;;;;;10444850;27;20523;-63
2021/03/13 08:31:36;;;;;;;98.22;58.92;;;;;;;;;;10443693;27;20368;-63
2021/03/13 08:36:47;;;;;;;95.97;51.78;;;;;;;;;;10443294;27;20047;-63
2021/03/13 08:41:48;;;;;;;66.32;48.40;;;;;;;;;;10442341;27;20055;-63
2021/03/13 08:46:47;;;;;;;59.70;43.78;;;;;;;;;;10442968;27;20115;-63
2021/03/13 08:51:45;;;;;;;107.47;69.43;;;;;;;;;;10443503;27;20078;-62
2021/03/13 08:56:43;;;;;;;77.82;56.80;;;;;;;;;;10443556;27;20043;-63
2021/03/13 09:01:41;;;;;;;128.20;94.63;;;;;;;;;;10442372;27;20391;-63
2021/03/13 09:06:41;;;;;;;64.25;46.88;;;;;;;;;;10442850;27;20077;-63
2021/03/13 09:11:40;;;;;;;72.28;49.13;;;;;;;;;;10440925;27;20079;-63
2021/03/13 09:16:38;;;;;;;68.32;43.85;;;;;;;;;;10442595;27;20039;-62
2021/03/13 09:21:36;;;;;;;61.22;41.75;;;;;;;;;;10441766;27;20420;-61
2021/03/13 09:26:35;;;;;;;62.17;45.33;;;;;;;;;;10440503;27;20081;-62
2021/03/13 09:31:32;;;;;;;73.13;51.47;;;;;;;;;;10442101;27;20035;-62
2021/03/13 09:36:30;;;;;;;70.28;50.47;;;;;;;;;;10441188;27;20039;-62
2021/03/13 09:41:27;;;;;;;415.33;76.22;;;;;;;;;;10440141;27;20361;-62
2021/03/13 09:46:26;;;;;;;82.22;51.38;;;;;;;;;;10441617;27;20070;-63
2021/03/13 09:51:25;;;;;;;83.85;53.85;;;;;;;;;;10441510;27;20183;-63
2021/03/13 09:56:30;;;;;;;85.65;54.22;;;;;;;;;;10441459;27;20039;-64
2021/03/13 10:01:28;;;;;;;77.97;50.50;;;;;;;;;;10440752;28;20472;-65
2021/03/13 10:06:26;;;;;;;96.53;62.85;;;;;;;;;;10441211;28;20087;-65
2021/03/13 10:11:23;;;;;;;75.38;54.00;;;;;;;;;;10440703;28;20074;-65
2021/03/13 10:16:29;;;;;;;70.90;48.65;;;;;;;;;;10439617;27;20074;-65
2021/03/13 10:21:27;;;;;;;65.18;46.63;;;;;;;;;;10449555;27;20047;-65
2021/03/13 10:26:26;;;;;;;60.03;44.15;;;;;;;;;;10448633;27;20082;-65
2021/03/13 10:31:28;;;;;;;55.33;40.80;;;;;;;;;;10447942;27;20514;-65
2021/03/13 10:36:42;;;;;;;68.43;49.05;;;;;;;;;;10448911;27;20444;-65
2021/03/13 10:41:48;;;;;;;55.03;40.88;;;;;;;;;;10448367;27;20451;-65
2021/03/13 10:46:46;;;;;;;65.68;48.22;;;;;;;;;;10447467;27;20079;-65
2021/03/13 10:51:52;;;;;;;51.80;39.83;;;;;;;;;;10448105;27;20058;-64
2021/03/13 10:56:50;;;;;;;61.35;43.25;;;;;;;;;;10447656;27;20050;-65
2021/03/13 11:01:47;;;;;;;61.97;46.08;;;;;;;;;;10447169;27;20074;-65
2021/03/13 11:06:51;;;;;;;49.97;36.38;;;;;;;;;;10447828;27;20074;-65
2021/03/13 11:11:49;;;;;;;84.25;48.95;;;;;;;;;;10446983;27;20082;-65
2021/03/13 11:16:47;;;;;;;49.97;35.78;;;;;;;;;;10447344;27;20046;-66
2021/03/13 11:21:45;;;;;;;48.05;36.35;;;;;;;;;;10446290;27;20081;-65
2021/03/13 11:26:43;;;;;;;49.97;37.22;;;;;;;;;;10446037;27;20085;-65
2021/03/13 11:31:40;;;;;;;46.83;36.35;;;;;;;;;;10444974;27;20043;-65
2021/03/13 11:36:37;;;;;;;59.03;41.17;;;;;;;;;;10445172;27;20078;-65
2021/03/13 11:41:39;;;;;;;60.33;43.05;;;;;;;;;;10446031;27;20047;-65
2021/03/13 11:46:37;;;;;;;56.80;45.13;;;;;;;;;;10445826;27;20093;-65
2021/03/13 11:51:34;;;;;;;66.85;48.50;;;;;;;;;;10445354;27;20425;-65
2021/03/13 11:56:32;;;;;;;59.60;43.00;;;;;;;;;;10445864;27;20043;-65
2021/03/13 12:01:30;;;;;;;82.10;52.17;;;;;;;;;;10445507;27;20040;-65
2021/03/13 12:06:27;;;;;;;62.75;45.20;;;;;;;;;;10444404;27;20160;-65
2021/03/13 12:11:27;;;;;;;94.30;59.17;;;;;;;;;;10445250;27;20077;-65
2021/03/13 12:16:25;;;;;;;79.38;51.60;;;;;;;;;;10444161;27;20085;-64
2021/03/13 12:21:23;;;;;;;68.18;44.33;;;;;;;;;;10444873;27;20046;-66
2021/03/13 12:26:21;;;;;;;56.40;41.47;;;;;;;;;;10444491;27;20075;-66
2021/03/13 12:31:18;;;;;;;72.18;50.90;;;;;;;;;;10443659;27;20050;-67
2021/03/13 12:36:16;;;;;;;71.28;46.17;;;;;;;;;;10444275;27;20479;-66
2021/03/13 12:41:14;;;;;;;184.60;57.47;;;;;;;;;;10443301;27;20086;-66
2021/03/13 12:46:15;;;;;;;50.38;37.47;;;;;;;;;;10442746;27;20085;-64
2021/03/13 12:51:13;;;;;;;46.92;37.03;;;;;;;;;;10442742;27;20047;-65
2021/03/13 12:56:11;;;;;;;43.38;34.33;;;;;;;;;;10442602;27;20431;-64
2021/03/13 13:01:09;;;;;;;61.05;44.70;;;;;;;;;;10442402;27;20046;-65
2021/03/13 13:06:07;;;;;;;68.43;48.60;;;;;;;;;;10442378;27;20078;-64
2021/03/13 13:11:04;;;;;;;77.00;53.42;;;;;;;;;;10442432;27;20412;-64
2021/03/13 13:16:01;;;;;;;101.68;68.38;;;;;;;;;;10442434;27;20047;-64
2021/03/13 13:20:59;;;;;;;83.05;52.60;;;;;;;;;;10442365;27;20058;-64
2021/03/13 13:25:57;;;;;;;47.55;35.50;;;;;;;;;;10442021;27;20075;-64
2021/03/13 13:30:54;;;;;;;87.32;56.90;;;;;;;;;;10441150;27;20050;-64
2021/03/13 13:35:52;;;;;;;124.40;73.95;;;;;;;;;;10422871;27;20046;-64
2021/03/13 13:40:51;;;;;;;86.57;56.45;;;;;;;;;;10439981;27;20213;-64
2021/03/13 13:45:49;;;;;;;113.22;64.70;;;;;;;;;;10441393;27;20078;-64
2021/03/13 13:50:46;;;;;;;62.40;44.60;;;;;;;;;;10441045;27;20420;-64
2021/03/13 13:55:45;;;;;;;103.68;65.05;;;;;;;;;;10440227;27;20054;-64
2021/03/13 14:00:43;;;;;;;73.43;56.00;;;;;;;;;;10440632;28;20051;-64
2021/03/13 14:05:41;;;;;;;89.75;62.40;;;;;;;;;;10440892;28;20073;-64
2021/03/13 14:10:39;;;;;;;107.45;63.95;;;;;;;;;;10440875;28;20043;-64
2021/03/13 14:15:36;;;;;;;158.57;113.65;;;;;;;;;;10440295;28;20506;-64
2021/03/13 14:20:35;;;;;;;190.60;93.35;;;;;;;;;;10440045;28;20039;-64
2021/03/13 14:25:34;;;;;;;82.72;47.63;;;;;;;;;;10439794;28;20082;-64
2021/03/13 14:30:32;;;;;;;117.70;64.78;;;;;;;;;;10440382;28;20040;-64
2021/03/13 14:35:29;;;;;;;80.05;50.28;;;;;;;;;;10439328;28;20055;-64
2021/03/13 14:40:28;;;;;;;79.95;46.38;;;;;;;;;;10439741;28;20086;-64
2021/03/13 14:45:25;;;;;;;79.97;48.83;;;;;;;;;;10439950;28;20083;-64
2021/03/13 14:50:27;;;;;;;68.15;49.95;;;;;;;;;;10440122;28;20043;-64
2021/03/13 14:55:24;;;;;;;75.75;50.47;;;;;;;;;;10439789;28;20047;-64
2021/03/13 15:00:24;;;;;;;95.60;70.22;;;;;;;;;;10439374;28;20039;-64
2021/03/13 15:05:21;;;;;;;79.82;53.15;;;;;;;;;;10444512;27;20515;-64
2021/03/13 15:10:21;;;;;;;69.25;50.65;;;;;;;;;;10446613;27;20086;-64
2021/03/13 15:15:18;;;;;;;68.03;48.50;;;;;;;;;;10446261;27;20043;-64
2021/03/13 15:20:18;;;;;;;178.90;97.55;;;;;;;;;;10445935;27;20512;-64
2021/03/13 15:25:16;;;;;;;80.53;56.78;;;;;;;;;;10460584;27;20081;-63
2021/03/13 15:30:14;;;;;;;45.90;36.63;;;;;;;;;;10459767;27;20047;-62
2021/03/13 15:35:12;;;;;;;90.00;53.17;;;;;;;;;;10449349;27;20048;-62
2021/03/13 15:40:12;;;;;;;140.88;75.50;;;;;;;;;;10460501;27;20083;-63
2021/03/13 15:45:11;;;;;;;444.80;201.40;;;;;;;;;;10453338;27;20078;-62
2021/03/13 15:50:10;;;;;;;52.47;43.10;;;;;;;;;;10452285;27;20042;-63
2021/03/13 15:55:10;;;;;;;90.15;50.63;;;;;;;;;;10448111;27;20074;-63
2021/03/13 16:00:09;;;;;;;96.10;54.58;;;;;;;;;;10436770;27;20083;-63
2021/03/13 16:05:10;;;;;;;54.92;41.85;;;;;;;;;;10443681;27;20082;-63
2021/03/13 16:10:09;;;;;;;55.97;40.22;;;;;;;;;;10421743;27;20051;-64
2021/03/13 16:15:09;;;;;;;51.15;39.80;;;;;;;;;;10424880;27;20047;-64
2021/03/13 16:20:07;;;;;;;317.15;144.30;;;;;;;;;;10425941;27;20062;-65
2021/03/13 16:25:06;;;;;;;181.23;95.55;;;;;;;;;;10425122;27;20040;-63
2021/03/13 16:30:04;;;;;;;109.38;65.82;;;;;;;;;;10424861;27;20043;-64
2021/03/13 16:35:05;;;;;;;133.52;74.63;;;;;;;;;;10424875;27;20047;-64
2021/03/13 16:40:02;;;;;;;81.43;53.47;;;;;;;;;;10443330;27;20488;-63
2021/03/13 16:45:08;;;;;;;70.22;50.42;;;;;;;;;;10443571;27;20507;-63
2021/03/13 16:50:08;;;;;;;94.88;62.67;;;;;;;;;;10424592;27;20051;-64
2021/03/13 16:55:07;;;;;;;91.32;61.17;;;;;;;;;;10424307;27;20424;-64
2021/03/13 17:00:07;;;;;;;90.05;61.17;;;;;;;;;;10424319;27;20043;-65
2021/03/13 17:05:06;;;;;;;77.80;54.83;;;;;;;;;;10423327;27;20530;-64
2021/03/13 17:10:05;;;;;;;103.97;71.40;;;;;;;;;;10423642;27;20237;-64
2021/03/13 17:15:17;;;;;;;87.50;58.28;;;;;;;;;;10423514;27;20051;-65
2021/03/13 17:20:14;;;;;;;125.82;84.88;;;;;;;;;;10422755;27;20058;-64
2021/03/13 17:25:16;;;;;;;199.77;128.73;;;;;;;;;;10423073;27;20090;-64
2021/03/13 17:30:15;;;;;;;131.25;75.75;;;;;;;;;;10421975;27;20047;-64
2021/03/13 17:35:13;;;;;;;211.15;108.35;;;;;;;;;;10422018;27;20054;-64
2021/03/13 17:40:12;;;;;;;67.05;43.42;;;;;;;;;;10423004;27;20506;-64
2021/03/13 17:45:13;;;;;;;50.40;37.50;;;;;;;;;;10422630;27;20526;-63
2021/03/13 17:50:12;;;;;;;40.47;32.17;;;;;;;;;;10440937;27;20051;-64
2021/03/13 17:55:20;;;;;;;47.67;37.97;;;;;;;;;;10422109;27;20051;-65
2021/03/13 18:00:21;;;;;;;48.45;37.90;;;;;;;;;;10421872;27;20055;-64
2021/03/13 18:05:24;;;;;;;44.67;33.50;;;;;;;;;;10421574;27;20435;-64
2021/03/13 18:10:22;;;;;;;42.75;34.88;;;;;;;;;;10421446;28;20051;-63
2021/03/13 18:15:26;;;;;;;55.50;41.97;;;;;;;;;;10421631;28;20055;-64
2021/03/13 18:20:33;;;;;;;63.88;44.88;;;;;;;;;;10440596;28;20050;-64
2021/03/13 18:25:37;;;;;;;92.22;57.10;;;;;;;;;;10420781;28;20539;-64
2021/03/13 18:30:36;;;;;;;93.88;58.72;;;;;;;;;;10439893;28;20105;-63
2021/03/13 18:35:35;;;;;;;53.78;38.13;;;;;;;;;;10421551;28;20046;-64
2021/03/13 18:40:36;;;;;;;43.65;34.17;;;;;;;;;;10445021;27;20070;-63
2021/03/13 18:45:37;;;;;;;39.15;29.35;;;;;;;;;;10429315;27;20098;-64
2021/03/13 18:50:35;;;;;;;38.83;30.70;;;;;;;;;;10429267;27;20043;-63
2021/03/13 18:55:32;;;;;;;33.72;27.02;;;;;;;;;;10447642;27;20085;-64
2021/03/13 19:00:38;;;;;;;55.00;46.77;;;;;;;;;;10428743;27;20059;-64
2021/03/13 19:05:36;;;;;;;45.13;37.28;;;;;;;;;;10428393;27;20082;-63
2021/03/13 19:10:35;;;;;;;60.20;52.92;;;;;;;;;;10447320;27;20067;-63
2021/03/13 19:15:33;;;;;;;45.15;36.78;;;;;;;;;;10446509;27;20077;-64
2021/03/13 19:20:31;;;;;;;55.70;49.88;;;;;;;;;;10447007;27;20439;-64
2021/03/13 19:25:45;;;;;;;42.58;36.28;;;;;;;;;;10427615;27;20511;-63
2021/03/13 19:30:50;;;;;;;;;;;;;;;;;;10428290;27;20393;-64
2021/03/13 19:35:48;;;;;;;42.25;30.63;;;;;;;;;;10446202;27;19919;-63
2021/03/13 19:40:46;;;;;;;41.20;33.88;;;;;;;;;;10446082;27;20512;-63
2021/03/13 19:45:43;;;;;;;34.13;27.50;;;;;;;;;;10445126;27;20081;-63
2021/03/13 19:50:41;;;;;;;34.28;29.73;;;;;;;;;;10445006;27;20043;-64
2021/03/13 19:55:40;;;;;;;32.00;26.35;;;;;;;;;;10445245;27;20054;-64
2021/03/13 20:00:37;;;;;;;31.38;24.05;;;;;;;;;;10426909;27;20047;-64
2021/03/13 20:05:34;;;;;;;27.05;22.80;;;;;;;;;;10444845;27;20071;-63
2021/03/13 20:10:34;;;;;;;30.90;24.40;;;;;;;;;;10444416;27;20043;-63
2021/03/13 20:15:33;;;;;;;29.63;22.25;;;;;;;;;;10444927;27;20039;-63
2021/03/13 20:20:30;;;;;;;28.38;23.52;;;;;;;;;;10444060;27;20043;-63
2021/03/13 20:25:27;;;;;;;28.15;21.83;;;;;;;;;;10425284;27;20089;-64
2021/03/13 20:30:25;;;;;;;33.20;23.38;;;;;;;;;;10443831;27;20083;-64
2021/03/13 20:35:25;;;;;;;34.25;22.73;;;;;;;;;;10444170;27;20065;-63
2021/03/13 20:40:23;;;;;;;32.30;24.48;;;;;;;;;;10442917;27;20086;-63
2021/03/13 20:45:21;;;;;;;47.20;28.02;;;;;;;;;;10443784;27;20075;-62
2021/03/13 20:50:18;;;;;;;29.70;22.75;;;;;;;;;;10443541;27;20050;-63
2021/03/13 20:55:16;;;;;;;27.20;21.95;;;;;;;;;;10443186;27;20043;-63
2021/03/13 21:00:14;;;;;;;26.13;20.88;;;;;;;;;;10442342;27;20076;-64
2021/03/13 21:05:12;;;;;;;27.52;21.73;;;;;;;;;;10442651;27;20079;-63
2021/03/13 21:10:10;;;;;;;25.67;21.73;;;;;;;;;;10442183;27;20039;-64
2021/03/13 21:15:09;;;;;;;29.08;22.33;;;;;;;;;;10442242;27;20050;-63
2021/03/13 21:20:07;;;;;;;27.90;20.90;;;;;;;;;;10442282;27;20050;-63
2021/03/13 21:25:05;;;;;;;26.50;21.65;;;;;;;;;;10441819;27;20086;-63
2021/03/13 21:30:03;;;;;;;24.80;20.95;;;;;;;;;;10442143;27;20035;-63
2021/03/13 21:35:04;;;;;;;23.48;20.23;;;;;;;;;;10441184;27;20039;-63
2021/03/13 21:40:01;;;;;;;23.23;19.70;;;;;;;;;;10441465;27;20491;-64
2021/03/13 21:44:59;;;;;;;22.48;18.05;;;;;;;;;;10441167;27;20531;-63
2021/03/13 21:49:56;;;;;;;19.85;16.80;;;;;;;;;;10441485;27;20073;-64
2021/03/13 21:54:57;;;;;;;25.92;21.40;;;;;;;;;;10441215;27;20082;-63
2021/03/13 21:59:54;;;;;;;21.67;18.33;;;;;;;;;;10440615;27;20050;-63
2021/03/13 22:04:52;;;;;;;21.42;18.85;;;;;;;;;;10440390;27;20050;-63
2021/03/13 22:09:50;;;;;;;28.55;25.45;;;;;;;;;;10440423;28;20081;-63
2021/03/13 22:14:50;;;;;;;34.13;30.63;;;;;;;;;;10445311;27;20412;-64
2021/03/13 22:19:47;;;;;;;30.02;26.77;;;;;;;;;;10448610;27;20047;-64
2021/03/13 22:24:45;;;;;;;45.42;40.92;;;;;;;;;;10448593;27;20043;-64
2021/03/13 22:29:42;;;;;;;30.50;27.10;;;;;;;;;;10448894;27;20058;-62
2021/03/13 22:34:40;;;;;;;77.72;69.93;;;;;;;;;;10448687;27;20043;-64
2021/03/13 22:39:37;;;;;;;25.35;22.08;;;;;;;;;;10448127;27;20090;-64
2021/03/13 22:44:35;;;;;;;32.80;29.30;;;;;;;;;;10448262;27;20417;-64
2021/03/13 22:49:32;;;;;;;28.23;25.23;;;;;;;;;;10447531;27;20075;-64
2021/03/13 22:54:30;;;;;;;25.95;23.17;;;;;;;;;;10447082;27;20057;-63
2021/03/13 22:59:28;;;;;;;29.08;26.08;;;;;;;;;;10447730;27;20051;-63
2021/03/13 23:04:26;;;;;;;26.00;21.75;;;;;;;;;;10446951;27;20067;-64
2021/03/13 23:09:24;;;;;;;20.75;17.40;;;;;;;;;;10447410;27;20074;-63
2021/03/13 23:14:22;;;;;;;22.77;19.20;;;;;;;;;;10447180;27;20039;-64
2021/03/13 23:19:19;;;;;;;17.98;15.93;;;;;;;;;;10446478;27;20047;-63
2021/03/13 23:24:19;;;;;;;20.00;15.70;;;;;;;;;;10445982;27;20098;-64
2021/03/13 23:29:16;;;;;;;20.65;16.20;;;;;;;;;;10446467;27;20075;-63
2021/03/13 23:34:14;;;;;;;25.40;19.00;;;;;;;;;;10446273;27;20071;-63
2021/03/13 23:39:12;;;;;;;21.73;17.10;;;;;;;;;;10446115;27;20039;-64
2021/03/13 23:44:09;;;;;;;17.40;14.88;;;;;;;;;;10445930;27;20408;-64
2021/03/13 23:49:07;;;;;;;22.65;18.00;;;;;;;;;;10445625;27;20082;-64
2021/03/13 23:54:05;;;;;;;18.20;15.93;;;;;;;;;;10444993;27;20054;-64
2021/03/13 23:59:02;;;;;;;17.02;15.02;;;;;;;;;;10445460;27;20475;-64
